createdAt,value
2022-12-24T00:00:24.806Z,122.13
2022-12-24T00:01:59.376Z,114.30
2022-12-24T00:03:33.152Z,117.80
2022-12-24T00:05:07.657Z,110.03
2022-12-24T00:06:40.810Z,96.32
2022-12-24T00:08:13.008Z,101.68
2022-12-24T00:09:46.172Z,101.20
2022-12-24T00:11:19.958Z,103.53
2022-12-24T00:12:52.098Z,107.07
2022-12-24T00:14:25.247Z,119.30
2022-12-24T00:15:58.462Z,114.00
2022-12-24T00:17:33.003Z,69.65
2022-12-24T00:19:06.229Z,59.25
2022-12-24T00:20:39.348Z,57.00
2022-12-24T00:22:12.520Z,48.83
2022-12-24T00:23:44.878Z,53.40
2022-12-24T00:25:18.436Z,50.22
2022-12-24T00:26:51.627Z,48.33
2022-12-24T00:28:24.080Z,36.15
2022-12-24T00:29:57.251Z,27.40
2022-12-24T00:31:30.599Z,34.50
2022-12-24T00:33:04.372Z,24.67
2022-12-24T00:34:37.611Z,30.92
2022-12-24T00:36:10.059Z,40.88
2022-12-24T00:37:43.270Z,32.90
2022-12-24T00:39:16.440Z,27.85
2022-12-24T00:40:48.589Z,37.10
2022-12-24T00:42:21.783Z,30.70
2022-12-24T00:43:56.288Z,34.92
2022-12-24T00:45:29.449Z,23.35
2022-12-24T00:47:05.518Z,35.88
2022-12-24T00:48:44.582Z,51.45
2022-12-24T00:50:17.907Z,32.30
2022-12-24T00:51:51.165Z,25.35
2022-12-24T00:53:24.330Z,43.67
2022-12-24T00:54:57.576Z,28.83
2022-12-24T00:56:29.932Z,23.20
2022-12-24T00:58:03.040Z,37.22
2022-12-24T00:59:36.186Z,32.13
2022-12-24T01:01:08.517Z,33.00
2022-12-24T01:02:41.899Z,29.80
2022-12-24T01:04:34.448Z,32.95
2022-12-24T01:06:09.752Z,25.38
2022-12-24T01:07:44.316Z,29.70
2022-12-24T01:09:17.660Z,34.83
2022-12-24T01:10:50.779Z,31.98
2022-12-24T01:12:23.441Z,31.40
2022-12-24T01:13:57.371Z,56.15
2022-12-24T01:15:30.807Z,37.08
2022-12-24T01:17:03.083Z,40.45
2022-12-24T01:18:36.249Z,34.55
2022-12-24T01:20:16.165Z,43.53
2022-12-24T01:21:49.316Z,46.67
2022-12-24T01:23:22.424Z,48.80
2022-12-24T01:24:55.700Z,48.25
2022-12-24T01:26:28.856Z,50.05
2022-12-24T01:28:01.956Z,44.17
2022-12-24T01:29:34.273Z,53.45
2022-12-24T01:31:12.237Z,58.63
2022-12-24T01:32:45.389Z,63.65
2022-12-24T01:34:17.586Z,60.63
2022-12-24T01:35:52.125Z,57.63
2022-12-24T01:37:25.355Z,47.92
2022-12-24T01:38:57.531Z,54.67
2022-12-24T01:40:48.264Z,65.05
2022-12-24T01:42:41.321Z,59.45
2022-12-24T01:44:35.255Z,60.90
2022-12-24T01:46:15.043Z,58.85
2022-12-24T01:47:48.804Z,65.22
2022-12-24T01:49:22.200Z,46.35
2022-12-24T01:51:01.638Z,53.67
2022-12-24T01:52:37.074Z,53.30
2022-12-24T01:54:13.367Z,65.63
2022-12-24T01:55:48.221Z,72.30
2022-12-24T01:57:27.287Z,73.40
2022-12-24T01:59:05.806Z,78.32
2022-12-24T02:00:38.174Z,92.78
2022-12-24T02:02:12.076Z,119.40
2022-12-24T02:03:44.733Z,94.78
2022-12-24T02:05:24.665Z,105.40
2022-12-24T02:06:59.282Z,133.63
2022-12-24T02:08:40.076Z,62.25
2022-12-24T02:10:14.709Z,61.22
2022-12-24T02:11:48.307Z,56.55
2022-12-24T02:13:22.785Z,49.83
2022-12-24T02:14:55.258Z,45.80
2022-12-24T02:16:39.708Z,57.55
2022-12-24T02:18:21.548Z,65.43
2022-12-24T02:20:32.016Z,75.97
2022-12-24T02:22:11.588Z,82.75
2022-12-24T02:24:02.858Z,78.60
2022-12-24T02:26:08.278Z,84.82
2022-12-24T02:27:56.992Z,98.85
2022-12-24T02:30:00.091Z,98.97
2022-12-24T02:31:42.824Z,116.50
2022-12-24T02:33:31.208Z,119.53
2022-12-24T02:35:10.779Z,164.27
2022-12-24T02:36:48.383Z,179.45
2022-12-24T02:38:28.364Z,192.05
2022-12-24T02:40:13.772Z,171.48
2022-12-24T02:42:08.885Z,153.23
2022-12-24T02:43:46.127Z,161.82
2022-12-24T02:45:23.160Z,161.20
2022-12-24T02:47:00.485Z,162.35
2022-12-24T02:48:34.290Z,197.18
2022-12-24T02:50:09.713Z,194.07
2022-12-24T02:51:43.133Z,189.55
2022-12-24T02:53:16.211Z,209.95
2022-12-24T02:54:49.429Z,203.45
2022-12-24T02:56:37.965Z,214.90
2022-12-24T02:58:26.220Z,322.35
2022-12-24T03:00:04.010Z,334.60
2022-12-24T03:01:50.199Z,180.48
2022-12-24T03:03:43.293Z,309.80
2022-12-24T03:05:23.965Z,329.15
2022-12-24T03:07:02.268Z,273.20
2022-12-24T03:08:45.238Z,340.92
2022-12-24T03:10:23.277Z,216.55
2022-12-24T03:12:02.815Z,294.48
2022-12-24T03:13:36.197Z,205.30
2022-12-24T03:15:10.288Z,214.65
2022-12-24T03:16:45.317Z,207.77
2022-12-24T03:18:20.789Z,226.15
2022-12-24T03:19:56.719Z,196.10
2022-12-24T03:21:34.621Z,201.48
2022-12-24T03:23:08.111Z,128.05
2022-12-24T03:24:40.311Z,111.28
2022-12-24T03:26:15.790Z,113.85
2022-12-24T03:27:48.368Z,109.05
2022-12-24T03:29:21.887Z,143.50
2022-12-24T03:30:55.755Z,155.68
2022-12-24T03:32:29.839Z,156.02
2022-12-24T03:34:02.937Z,88.90
2022-12-24T03:35:36.450Z,140.25
2022-12-24T03:37:09.668Z,134.85
2022-12-24T03:38:41.818Z,127.80
2022-12-24T03:40:15.338Z,129.77
2022-12-24T03:41:47.761Z,174.88
2022-12-24T03:43:20.948Z,254.32
2022-12-24T03:44:54.082Z,283.52
2022-12-24T03:46:27.299Z,180.80
2022-12-24T03:48:00.523Z,181.07
2022-12-24T03:49:33.661Z,143.30
2022-12-24T03:51:18.937Z,100.20
2022-12-24T03:52:52.141Z,130.80
2022-12-24T03:54:25.307Z,110.93
2022-12-24T03:55:58.454Z,146.10
2022-12-24T03:57:30.619Z,87.57
2022-12-24T03:59:03.923Z,112.90
2022-12-24T04:00:36.065Z,110.30
2022-12-24T04:02:09.548Z,76.55
2022-12-24T04:03:41.885Z,76.30
2022-12-24T04:05:16.213Z,114.93
2022-12-24T04:06:50.808Z,116.75
2022-12-24T04:08:23.901Z,100.75
2022-12-24T04:09:57.016Z,146.18
2022-12-24T04:11:29.173Z,174.90
2022-12-24T04:13:02.300Z,204.32
2022-12-24T04:14:35.567Z,206.60
2022-12-24T04:16:10.983Z,186.48
2022-12-24T04:17:44.183Z,150.40
2022-12-24T04:19:17.336Z,104.70
2022-12-24T04:20:50.455Z,134.68
2022-12-24T04:22:24.945Z,92.32
2022-12-24T04:23:58.079Z,83.63
2022-12-24T04:25:31.160Z,84.90
2022-12-24T04:27:04.450Z,68.97
2022-12-24T04:28:38.200Z,87.30
2022-12-24T04:30:12.036Z,105.00
2022-12-24T04:31:45.315Z,62.33
2022-12-24T04:33:17.446Z,53.65
2022-12-24T04:34:50.590Z,55.45
2022-12-24T04:36:23.820Z,46.88
2022-12-24T04:37:58.424Z,45.47
2022-12-24T04:39:31.604Z,62.83
2022-12-24T04:41:05.609Z,52.40
2022-12-24T04:42:38.791Z,52.63
2022-12-24T04:44:10.936Z,115.50
2022-12-24T04:45:44.188Z,82.25
2022-12-24T04:47:17.476Z,79.38
2022-12-24T04:48:55.013Z,39.55
2022-12-24T04:50:27.311Z,37.15
2022-12-24T04:52:00.416Z,53.17
2022-12-24T04:53:34.845Z,43.10
2022-12-24T04:55:09.257Z,46.65
2022-12-24T04:56:42.679Z,54.10
2022-12-24T04:58:15.870Z,56.08
2022-12-24T04:59:49.611Z,71.97
2022-12-24T05:01:24.284Z,76.20
2022-12-24T05:02:57.519Z,72.93
2022-12-24T05:04:32.004Z,83.47
2022-12-24T05:06:05.432Z,104.60
2022-12-24T05:07:38.831Z,107.63
2022-12-24T05:09:13.211Z,123.75
2022-12-24T05:10:46.420Z,113.97
2022-12-24T05:12:19.678Z,164.88
2022-12-24T05:13:51.908Z,200.05
2022-12-24T05:15:25.557Z,200.07
2022-12-24T05:16:58.825Z,200.82
2022-12-24T05:18:31.331Z,164.98
2022-12-24T05:20:08.775Z,114.57
2022-12-24T05:21:41.844Z,98.25
2022-12-24T05:23:35.280Z,128.07
2022-12-24T05:25:28.717Z,161.65
2022-12-24T05:27:01.936Z,190.80
2022-12-24T05:28:35.190Z,238.07
2022-12-24T05:30:09.694Z,191.15
2022-12-24T05:31:45.373Z,175.05
2022-12-24T05:33:19.065Z,150.35
2022-12-24T05:34:52.361Z,84.53
2022-12-24T05:36:25.615Z,91.15
2022-12-24T05:37:58.589Z,100.78
2022-12-24T05:39:31.842Z,75.07
2022-12-24T05:41:06.296Z,126.00
2022-12-24T05:42:39.675Z,88.72
2022-12-24T05:44:13.034Z,81.70
2022-12-24T05:45:46.766Z,142.27
2022-12-24T05:47:19.999Z,148.15
2022-12-24T05:48:54.457Z,145.60
2022-12-24T05:50:28.625Z,76.75
2022-12-24T05:52:11.438Z,90.60
2022-12-24T05:53:43.874Z,95.65
2022-12-24T05:55:17.032Z,83.45
2022-12-24T05:56:51.591Z,99.00
2022-12-24T05:58:23.800Z,92.40
2022-12-24T05:59:57.002Z,107.53
2022-12-24T06:01:30.649Z,116.50
2022-12-24T06:03:04.416Z,113.93
2022-12-24T06:04:37.645Z,107.18
2022-12-24T06:06:13.941Z,120.72
2022-12-24T06:07:46.165Z,130.38
2022-12-24T06:09:19.403Z,130.07
2022-12-24T06:10:56.094Z,116.93
2022-12-24T06:12:31.332Z,177.18
2022-12-24T06:14:04.901Z,155.30
2022-12-24T06:15:37.987Z,107.75
2022-12-24T06:17:11.213Z,162.85
2022-12-24T06:18:44.519Z,106.15
2022-12-24T06:20:17.895Z,135.75
2022-12-24T06:21:51.720Z,129.13
2022-12-24T06:23:24.599Z,134.35
2022-12-24T06:24:58.122Z,111.70
2022-12-24T06:26:31.643Z,86.90
2022-12-24T06:28:05.720Z,93.60
2022-12-24T06:29:39.450Z,71.07
2022-12-24T06:31:14.972Z,56.05
2022-12-24T06:32:48.483Z,70.35
2022-12-24T06:34:23.915Z,64.07
2022-12-24T06:35:57.067Z,70.57
2022-12-24T06:37:30.800Z,59.60
2022-12-24T06:39:03.000Z,110.88
2022-12-24T06:40:36.658Z,99.00
2022-12-24T06:42:09.759Z,120.57
2022-12-24T06:43:47.220Z,96.45
2022-12-24T06:45:20.592Z,96.78
2022-12-24T06:46:53.993Z,101.07
2022-12-24T06:48:27.653Z,87.95
2022-12-24T06:50:00.858Z,68.85
2022-12-24T06:51:34.309Z,67.50
2022-12-24T06:53:07.738Z,63.75
2022-12-24T06:54:41.370Z,70.65
2022-12-24T06:56:14.764Z,62.53
2022-12-24T06:57:48.356Z,82.65
2022-12-24T06:59:23.046Z,83.18
2022-12-24T07:00:56.509Z,140.10
2022-12-24T07:02:29.646Z,168.70
2022-12-24T07:04:03.363Z,168.73
2022-12-24T07:05:38.663Z,165.02
2022-12-24T07:07:13.112Z,175.90
2022-12-24T07:08:46.298Z,194.82
2022-12-24T07:10:19.286Z,176.48
2022-12-24T07:11:52.655Z,160.20
2022-12-24T07:13:25.819Z,163.30
2022-12-24T07:15:00.468Z,149.75
2022-12-24T07:16:33.803Z,175.27
2022-12-24T07:18:07.785Z,176.23
2022-12-24T07:19:40.876Z,153.65
2022-12-24T07:21:13.299Z,226.38
2022-12-24T07:22:47.949Z,178.20
2022-12-24T07:24:21.632Z,212.02
2022-12-24T07:25:53.812Z,206.65
2022-12-24T07:27:27.125Z,139.10
2022-12-24T07:29:00.333Z,106.85
2022-12-24T07:30:34.396Z,88.15
2022-12-24T07:32:08.102Z,99.32
2022-12-24T07:33:41.487Z,114.45
2022-12-24T07:35:15.484Z,114.30
2022-12-24T07:36:49.051Z,119.68
2022-12-24T07:38:22.210Z,109.53
2022-12-24T07:39:55.295Z,99.20
2022-12-24T07:41:28.456Z,111.63
2022-12-24T07:43:01.044Z,132.43
2022-12-24T07:44:34.483Z,123.55
2022-12-24T07:46:09.816Z,133.90
2022-12-24T07:47:43.535Z,165.85
2022-12-24T07:49:17.276Z,138.48
2022-12-24T07:50:50.888Z,123.03
2022-12-24T07:52:24.174Z,117.85
2022-12-24T07:53:57.389Z,108.43
2022-12-24T07:55:31.995Z,115.53
2022-12-24T07:57:05.587Z,97.25
2022-12-24T07:58:37.819Z,90.88
2022-12-24T08:00:12.106Z,332.73
2022-12-24T08:01:47.803Z,85.63
2022-12-24T08:03:22.958Z,74.90
2022-12-24T08:04:56.898Z,59.70
2022-12-24T08:06:30.281Z,66.53
2022-12-24T08:08:03.218Z,76.35
2022-12-24T08:09:37.811Z,92.68
2022-12-24T08:11:10.993Z,121.95
2022-12-24T08:12:45.606Z,107.45
2022-12-24T08:14:19.447Z,118.75
2022-12-24T08:15:51.789Z,127.32
2022-12-24T08:17:31.988Z,136.57
2022-12-24T08:19:06.011Z,154.63
2022-12-24T08:20:43.006Z,131.75
2022-12-24T08:22:16.951Z,161.10
2022-12-24T08:23:50.360Z,150.07
2022-12-24T08:25:22.516Z,165.38
2022-12-24T08:26:55.898Z,151.98
2022-12-24T08:28:29.341Z,142.95
2022-12-24T08:30:03.165Z,121.43
2022-12-24T08:31:38.250Z,126.65
2022-12-24T08:33:13.063Z,137.20
2022-12-24T08:34:46.172Z,111.30
2022-12-24T08:36:20.367Z,104.65
2022-12-24T08:37:53.670Z,88.03
2022-12-24T08:39:26.740Z,93.80
2022-12-24T08:41:00.911Z,101.97
2022-12-24T08:42:34.071Z,84.47
2022-12-24T08:44:07.702Z,90.55
2022-12-24T08:45:41.372Z,81.97
2022-12-24T08:47:14.614Z,74.75
2022-12-24T08:48:49.439Z,70.75
2022-12-24T08:50:23.410Z,62.05
2022-12-24T08:51:56.555Z,61.70
2022-12-24T08:53:29.316Z,72.70
2022-12-24T08:55:04.702Z,72.45
2022-12-24T08:56:38.112Z,72.00
2022-12-24T08:58:12.572Z,70.63
2022-12-24T08:59:45.754Z,58.55
2022-12-24T09:01:21.503Z,62.60
2022-12-24T09:02:54.890Z,71.90
2022-12-24T09:04:30.697Z,73.28
2022-12-24T09:06:05.321Z,73.80
2022-12-24T09:07:38.733Z,82.80
2022-12-24T09:09:11.893Z,84.05
2022-12-24T09:10:44.999Z,75.40
2022-12-24T09:12:18.161Z,77.45
2022-12-24T09:13:55.088Z,89.32
2022-12-24T09:15:28.544Z,89.40
2022-12-24T09:17:06.546Z,99.53
2022-12-24T09:18:40.426Z,112.63
2022-12-24T09:20:15.409Z,101.60
2022-12-24T09:21:48.718Z,157.10
2022-12-24T09:23:21.862Z,114.60
2022-12-24T09:24:56.167Z,112.50
2022-12-24T09:26:31.555Z,136.48
2022-12-24T09:28:04.846Z,111.50
2022-12-24T09:29:40.682Z,114.90
2022-12-24T09:31:14.509Z,115.75
2022-12-24T09:32:47.705Z,115.45
2022-12-24T09:34:25.173Z,118.00
2022-12-24T09:36:05.448Z,107.72
2022-12-24T09:37:41.968Z,114.70
2022-12-24T09:39:15.911Z,115.35
2022-12-24T09:40:49.405Z,112.03
2022-12-24T09:42:31.922Z,115.57
2022-12-24T09:44:19.840Z,99.93
2022-12-24T09:46:08.387Z,98.18
2022-12-24T09:47:47.942Z,85.47
2022-12-24T09:49:25.607Z,79.65
2022-12-24T09:51:05.520Z,88.03
2022-12-24T09:52:45.457Z,90.28
2022-12-24T09:54:23.710Z,98.57
2022-12-24T09:55:59.630Z,98.72
2022-12-24T09:57:38.322Z,112.00
2022-12-24T09:59:15.713Z,100.47
2022-12-24T10:00:50.357Z,108.72
2022-12-24T10:02:23.963Z,120.28
2022-12-24T10:04:00.408Z,110.90
2022-12-24T10:05:41.620Z,103.00
2022-12-24T10:07:29.590Z,101.95
2022-12-24T10:09:15.123Z,90.15
2022-12-24T10:10:53.223Z,92.18
2022-12-24T10:12:34.197Z,86.03
2022-12-24T10:14:20.508Z,142.18
2022-12-24T10:16:01.894Z,111.65
2022-12-24T10:17:53.643Z,109.47
2022-12-24T10:19:49.417Z,75.20
2022-12-24T10:21:33.667Z,85.00
2022-12-24T10:23:15.612Z,98.20
2022-12-24T10:24:59.579Z,69.25
2022-12-24T10:26:41.349Z,78.43
2022-12-24T10:28:19.323Z,81.40
2022-12-24T10:29:58.851Z,71.60
2022-12-24T10:31:40.888Z,72.22
2022-12-24T10:33:20.402Z,77.47
2022-12-24T10:35:00.455Z,76.85
2022-12-24T10:36:33.735Z,63.95
2022-12-24T10:38:06.952Z,57.22
2022-12-24T10:39:40.798Z,68.32
2022-12-24T10:41:17.319Z,81.25
2022-12-24T10:42:51.597Z,66.07
2022-12-24T10:44:29.288Z,64.93
2022-12-24T10:46:07.917Z,60.58
2022-12-24T10:47:43.537Z,63.13
2022-12-24T10:49:20.038Z,60.92
2022-12-24T10:50:58.583Z,61.03
2022-12-24T10:52:36.838Z,56.55
2022-12-24T10:54:19.455Z,95.72
2022-12-24T10:56:03.415Z,79.93
2022-12-24T10:57:39.676Z,64.60
2022-12-24T10:59:26.789Z,60.28
2022-12-24T11:00:59.995Z,58.70
2022-12-24T11:02:35.232Z,64.15
2022-12-24T11:04:16.516Z,66.15
2022-12-24T11:06:06.038Z,80.80
2022-12-24T11:07:39.948Z,96.13
2022-12-24T11:09:23.480Z,106.18
2022-12-24T11:10:58.614Z,111.68
2022-12-24T11:12:35.291Z,100.20
2022-12-24T11:14:18.190Z,84.30
2022-12-24T11:16:01.716Z,105.13
2022-12-24T11:17:35.614Z,74.32
2022-12-24T11:19:21.241Z,76.47
2022-12-24T11:20:59.554Z,88.50
2022-12-24T11:22:33.944Z,91.10
2022-12-24T11:24:15.719Z,75.55
2022-12-24T11:25:51.854Z,91.85
2022-12-24T11:27:32.142Z,85.60
2022-12-24T11:29:13.632Z,95.95
2022-12-24T11:31:01.569Z,138.07
2022-12-24T11:32:34.987Z,103.00
2022-12-24T11:34:23.599Z,119.68
2022-12-24T11:36:04.622Z,84.97
2022-12-24T11:37:38.375Z,79.32
2022-12-24T11:39:21.469Z,86.65
2022-12-24T11:41:13.400Z,77.00
2022-12-24T11:42:46.632Z,83.13
2022-12-24T11:44:27.907Z,88.57
2022-12-24T11:46:14.626Z,86.32
2022-12-24T11:47:47.990Z,88.43
2022-12-24T11:49:27.354Z,81.50
2022-12-24T11:51:04.974Z,92.03
2022-12-24T11:52:39.437Z,102.38
2022-12-24T11:54:21.744Z,106.85
2022-12-24T11:55:58.021Z,116.95
2022-12-24T11:57:45.553Z,121.47
2022-12-24T11:59:25.234Z,118.30
2022-12-24T12:01:10.163Z,125.68
2022-12-24T12:02:52.888Z,127.13
2022-12-24T12:04:30.801Z,123.03
2022-12-24T12:06:09.101Z,140.95
2022-12-24T12:07:44.692Z,122.80
2022-12-24T12:09:22.841Z,134.55
2022-12-24T12:10:57.958Z,133.07
2022-12-24T12:12:33.928Z,127.80
2022-12-24T12:14:11.435Z,118.32
2022-12-24T12:15:50.262Z,122.78
2022-12-24T12:17:32.544Z,182.80
2022-12-24T12:19:14.937Z,172.32
2022-12-24T12:20:52.021Z,261.15
2022-12-24T12:22:31.606Z,140.35
2022-12-24T12:24:08.346Z,132.30
2022-12-24T12:25:48.495Z,133.52
2022-12-24T12:27:29.282Z,136.65
2022-12-24T12:29:06.450Z,122.38
2022-12-24T12:30:42.329Z,125.38
2022-12-24T12:32:28.370Z,122.65
2022-12-24T12:34:07.518Z,152.25
2022-12-24T12:35:43.293Z,136.93
2022-12-24T12:37:21.832Z,170.38
2022-12-24T12:38:55.226Z,169.48
2022-12-24T12:40:41.520Z,167.23
2022-12-24T12:42:24.782Z,153.63
2022-12-24T12:44:26.281Z,142.43
2022-12-24T12:46:09.941Z,136.32
2022-12-24T12:48:01.373Z,141.93
2022-12-24T12:49:44.352Z,119.00
2022-12-24T12:51:23.941Z,115.03
2022-12-24T12:53:29.597Z,119.03
2022-12-24T12:55:23.886Z,147.50
2022-12-24T12:57:04.452Z,159.85
2022-12-24T12:58:41.132Z,202.98
2022-12-24T13:00:18.976Z,200.90
2022-12-24T13:02:02.318Z,206.20
2022-12-24T13:04:11.570Z,192.23
2022-12-24T13:06:14.752Z,181.85
2022-12-24T13:08:03.563Z,164.77
2022-12-24T13:10:04.666Z,169.40
2022-12-24T13:12:01.614Z,177.18
2022-12-24T13:13:54.118Z,308.35
2022-12-24T13:15:51.822Z,173.07
2022-12-24T13:17:46.924Z,162.45
2022-12-24T13:19:38.216Z,175.95
2022-12-24T13:21:18.910Z,158.68
2022-12-24T13:22:59.165Z,185.65
2022-12-24T13:24:35.500Z,169.73
2022-12-24T13:26:14.116Z,174.02
2022-12-24T13:27:47.657Z,190.15
2022-12-24T13:29:43.393Z,183.18
2022-12-24T13:31:29.882Z,157.65
2022-12-24T13:33:04.127Z,137.18
2022-12-24T13:34:39.304Z,141.65
2022-12-24T13:36:16.714Z,141.02
2022-12-24T13:37:52.763Z,130.32
2022-12-24T13:39:26.473Z,104.78
2022-12-24T13:41:50.670Z,92.70
2022-12-24T13:43:24.426Z,99.10
2022-12-24T13:45:30.750Z,96.35
2022-12-24T13:47:25.338Z,105.97
2022-12-24T13:49:13.396Z,106.60
2022-12-24T13:50:50.623Z,104.63
2022-12-24T13:52:37.654Z,116.40
2022-12-24T13:54:19.744Z,114.47
2022-12-24T13:55:55.613Z,110.43
2022-12-24T13:57:34.015Z,198.35
2022-12-24T13:59:33.133Z,160.23
2022-12-24T14:01:13.412Z,171.77
2022-12-24T14:02:50.668Z,192.30
2022-12-24T14:04:28.293Z,196.95
2022-12-24T14:06:05.144Z,232.98
2022-12-24T14:07:38.721Z,219.57
2022-12-24T14:09:18.075Z,197.50
2022-12-24T14:11:04.976Z,225.32
2022-12-24T14:12:50.050Z,203.70
2022-12-24T14:14:31.996Z,239.98
2022-12-24T14:16:06.276Z,230.00
2022-12-24T14:17:40.769Z,302.02
2022-12-24T14:19:17.832Z,291.45
2022-12-24T14:20:54.710Z,341.65
2022-12-24T14:22:32.039Z,297.25
2022-12-24T14:24:13.420Z,290.92
2022-12-24T14:25:48.239Z,275.13
2022-12-24T14:27:26.126Z,283.52
2022-12-24T14:29:05.057Z,276.40
2022-12-24T14:30:39.267Z,295.38
2022-12-24T14:32:16.272Z,275.05
2022-12-24T14:33:50.048Z,337.67
2022-12-24T14:35:27.028Z,369.58
2022-12-24T14:37:05.259Z,257.10
2022-12-24T14:38:42.043Z,260.63
2022-12-24T14:40:19.793Z,258.58
2022-12-24T14:42:03.497Z,160.50
2022-12-24T14:43:54.384Z,161.52
2022-12-24T14:45:35.122Z,158.75
2022-12-24T14:47:22.110Z,162.18
2022-12-24T14:48:58.870Z,173.20
2022-12-24T14:50:49.322Z,173.98
2022-12-24T14:53:04.031Z,160.98
2022-12-24T14:54:36.287Z,148.82
2022-12-24T14:56:17.271Z,164.02
2022-12-24T14:57:52.246Z,153.13
2022-12-24T14:59:26.966Z,160.52
2022-12-24T15:01:02.025Z,155.73
2022-12-24T15:02:44.356Z,178.43
2022-12-24T15:04:19.457Z,168.40
2022-12-24T15:05:55.884Z,167.50
2022-12-24T15:07:28.369Z,177.38
2022-12-24T15:09:02.959Z,188.15
2022-12-24T15:10:38.928Z,191.18
2022-12-24T15:12:14.257Z,182.60
2022-12-24T15:13:53.978Z,233.50
2022-12-24T15:15:27.177Z,227.63
2022-12-24T15:17:03.575Z,246.57
2022-12-24T15:18:39.860Z,277.15
2022-12-24T15:20:17.439Z,290.40
2022-12-24T15:21:51.114Z,288.92
2022-12-24T15:23:29.136Z,301.90
2022-12-24T15:25:02.379Z,230.02
2022-12-24T15:26:37.226Z,164.90
2022-12-24T15:28:19.612Z,170.52
2022-12-24T15:29:58.352Z,156.82
2022-12-24T15:31:32.979Z,149.38
2022-12-24T15:33:07.481Z,150.90
2022-12-24T15:34:42.657Z,147.98
2022-12-24T15:36:16.215Z,131.38
2022-12-24T15:37:49.508Z,135.27
2022-12-24T15:39:22.788Z,151.30
2022-12-24T15:40:56.410Z,130.55
2022-12-24T15:42:32.397Z,171.82
2022-12-24T15:44:09.473Z,142.15
2022-12-24T15:45:48.568Z,130.15
2022-12-24T15:47:28.055Z,143.85
2022-12-24T15:49:03.868Z,142.27
2022-12-24T15:50:39.263Z,119.53
2022-12-24T15:52:16.086Z,104.90
2022-12-24T15:53:50.102Z,192.32
2022-12-24T15:55:28.799Z,315.75
2022-12-24T15:57:14.502Z,240.15
2022-12-24T15:58:47.860Z,235.25
2022-12-24T16:00:24.174Z,212.45
2022-12-24T16:02:20.077Z,231.65
2022-12-24T16:04:00.551Z,195.63
2022-12-24T16:05:37.051Z,196.32
2022-12-24T16:07:25.821Z,200.32
2022-12-24T16:08:59.027Z,199.95
2022-12-24T16:10:32.129Z,200.45
2022-12-24T16:12:06.162Z,203.30
2022-12-24T16:13:43.329Z,209.23
2022-12-24T16:15:16.950Z,203.80
2022-12-24T16:16:53.008Z,211.40
2022-12-24T16:18:33.537Z,193.82
2022-12-24T16:20:17.540Z,195.57
2022-12-24T16:21:54.600Z,191.02
2022-12-24T16:23:34.014Z,194.20
2022-12-24T16:25:24.215Z,185.52
2022-12-24T16:26:59.164Z,199.35
2022-12-24T16:28:31.586Z,180.48
2022-12-24T16:30:05.705Z,172.68
2022-12-24T16:31:44.577Z,154.15
2022-12-24T16:33:22.277Z,137.95
2022-12-24T16:34:57.354Z,178.75
2022-12-24T16:36:32.041Z,185.88
2022-12-24T16:38:05.925Z,201.43
2022-12-24T16:39:39.044Z,221.43
2022-12-24T16:41:12.967Z,248.27
2022-12-24T16:43:03.802Z,226.70
2022-12-24T16:44:36.414Z,209.98
2022-12-24T16:46:10.125Z,236.75
2022-12-24T16:47:43.949Z,232.77
2022-12-24T16:49:18.697Z,240.35
2022-12-24T16:50:55.025Z,227.32
2022-12-24T16:52:30.122Z,239.82
2022-12-24T16:54:03.807Z,242.93
2022-12-24T16:55:37.222Z,242.25
2022-12-24T16:57:11.831Z,231.80
2022-12-24T16:58:45.831Z,235.20
2022-12-24T17:00:21.908Z,239.15
2022-12-24T17:01:56.251Z,246.75
2022-12-24T17:03:29.801Z,259.05
2022-12-24T17:05:02.958Z,265.73
2022-12-24T17:06:37.961Z,328.38
2022-12-24T17:08:12.040Z,404.73
2022-12-24T17:09:45.576Z,425.27
2022-12-24T17:11:23.378Z,271.20
2022-12-24T17:12:56.737Z,240.52
2022-12-24T17:14:30.173Z,195.52
2022-12-24T17:16:03.704Z,147.93
2022-12-24T17:17:37.926Z,175.52
2022-12-24T17:19:11.679Z,201.43
2022-12-24T17:20:57.615Z,202.82
2022-12-24T17:22:32.446Z,188.05
2022-12-24T17:24:06.913Z,180.27
2022-12-24T17:25:40.356Z,169.85
2022-12-24T17:27:12.731Z,183.95
2022-12-24T17:28:45.879Z,185.18
2022-12-24T17:30:19.402Z,180.57
2022-12-24T17:31:53.151Z,185.40
2022-12-24T17:33:26.579Z,211.48
2022-12-24T17:35:00.212Z,227.65
2022-12-24T17:36:34.595Z,231.48
2022-12-24T17:38:09.535Z,179.93
2022-12-24T17:39:42.707Z,172.32
2022-12-24T17:41:18.888Z,126.22
2022-12-24T17:42:53.097Z,156.98
2022-12-24T17:44:26.401Z,152.43
2022-12-24T17:46:00.104Z,150.90
2022-12-24T17:47:33.338Z,129.10
2022-12-24T17:49:07.258Z,123.80
2022-12-24T17:50:41.295Z,129.38
2022-12-24T17:52:15.292Z,110.82
2022-12-24T17:53:51.093Z,113.95
2022-12-24T17:55:24.476Z,109.35
2022-12-24T17:57:01.911Z,119.70
2022-12-24T17:58:36.039Z,127.75
2022-12-24T18:00:10.601Z,108.68
2022-12-24T18:01:44.305Z,104.05
2022-12-24T18:03:17.598Z,110.70
2022-12-24T18:04:51.524Z,119.55
2022-12-24T18:06:25.075Z,91.47
2022-12-24T18:07:58.737Z,99.80
2022-12-24T18:09:33.527Z,86.50
2022-12-24T18:11:12.987Z,87.57
2022-12-24T18:12:46.633Z,95.63
2022-12-24T18:14:20.496Z,99.35
2022-12-24T18:15:53.873Z,106.75
2022-12-24T18:17:27.036Z,141.65
2022-12-24T18:19:00.023Z,138.40
2022-12-24T18:20:39.611Z,151.90
2022-12-24T18:22:16.487Z,116.68
2022-12-24T18:23:51.289Z,129.68
2022-12-24T18:25:26.888Z,123.88
2022-12-24T18:27:00.153Z,139.70
2022-12-24T18:28:34.204Z,206.48
2022-12-24T18:30:09.205Z,175.50
2022-12-24T18:31:42.790Z,174.30
2022-12-24T18:33:15.950Z,166.77
2022-12-24T18:34:52.384Z,130.90
2022-12-24T18:36:26.134Z,128.45
2022-12-24T18:37:59.333Z,111.97
2022-12-24T18:39:32.494Z,105.00
2022-12-24T18:41:08.605Z,94.18
2022-12-24T18:42:43.028Z,115.07
2022-12-24T18:44:22.546Z,103.47
2022-12-24T18:45:57.927Z,66.10
2022-12-24T18:47:31.079Z,59.70
2022-12-24T18:49:04.335Z,69.18
2022-12-24T18:50:38.457Z,76.55
2022-12-24T18:52:11.844Z,95.50
2022-12-24T18:53:45.538Z,99.78
2022-12-24T18:55:18.859Z,80.88
2022-12-24T18:56:53.391Z,79.78
2022-12-24T18:58:25.513Z,100.32
2022-12-24T18:59:59.291Z,100.45
2022-12-24T19:01:36.671Z,100.35
2022-12-24T19:03:10.171Z,108.38
2022-12-24T19:04:43.418Z,80.28
2022-12-24T19:06:17.543Z,103.15
2022-12-24T19:07:50.657Z,180.13
2022-12-24T19:09:24.398Z,179.10
2022-12-24T19:10:57.686Z,180.23
2022-12-24T19:12:32.187Z,165.38
2022-12-24T19:14:07.478Z,184.95
2022-12-24T19:15:42.228Z,180.93
2022-12-24T19:17:15.432Z,179.05
2022-12-24T19:18:48.561Z,184.38
2022-12-24T19:20:21.807Z,190.80
2022-12-24T19:21:54.971Z,190.25
2022-12-24T19:23:28.087Z,195.73
2022-12-24T19:25:01.297Z,199.18
2022-12-24T19:26:34.382Z,197.77
2022-12-24T19:28:09.802Z,188.30
2022-12-24T19:29:42.972Z,151.35
2022-12-24T19:31:18.348Z,156.30
2022-12-24T19:32:51.601Z,163.75
2022-12-24T19:34:24.733Z,159.10
2022-12-24T19:35:58.055Z,137.82
2022-12-24T19:37:31.567Z,98.10
2022-12-24T19:39:04.897Z,87.85
2022-12-24T19:40:37.330Z,68.35
2022-12-24T19:42:10.438Z,81.88
2022-12-24T19:43:46.814Z,100.78
2022-12-24T19:45:20.145Z,123.47
2022-12-24T19:46:53.424Z,173.27
2022-12-24T19:48:26.632Z,139.52
2022-12-24T19:50:00.296Z,123.00
2022-12-24T19:51:34.745Z,169.35
2022-12-24T19:53:07.910Z,230.40
2022-12-24T19:54:42.692Z,258.70
2022-12-24T19:56:16.577Z,255.93
2022-12-24T19:57:49.701Z,231.35
2022-12-24T19:59:24.236Z,229.60
2022-12-24T20:00:57.518Z,208.60
2022-12-24T20:02:30.906Z,233.50
2022-12-24T20:04:05.032Z,311.65
2022-12-24T20:05:41.484Z,304.40
2022-12-24T20:07:14.645Z,295.30
2022-12-24T20:08:48.323Z,287.63
2022-12-24T20:10:21.512Z,198.82
2022-12-24T20:11:54.736Z,208.77
2022-12-24T20:13:28.907Z,155.02
2022-12-24T20:15:03.559Z,164.52
2022-12-24T20:16:37.879Z,130.27
2022-12-24T20:18:12.926Z,164.18
2022-12-24T20:19:47.750Z,173.80